KBOI

Boise Air Terminal / Gowen Field Airport

Boise, Idaho, USA
METAR KBOI 230953Z 28004KT 10SM CLR M09/M12 A3016 RMK AO2 SLP243 T10891117
Observed Flight Rules
Feb-23 @ 09:53 UTC (35 minutes ago) Visual Flight Rules
Wind Visibility Clouds
280° at 4 knots 10 miles
  • Clear skies
Temperatures Readings
Current -9°C / 16°F
Dewpoint -12°C / 10°F
Humidity 79%
Altimeter 30.16" Hg
Pressure 1024.3 hPa
Elevation 875
METAR KBOI 230953Z 28004KT 10SM CLR M09/M12 A3016 RMK AO2 SLP243 T10891117
Observed Flight Rules
Feb-23 @ 09:53 UTC
(35 minutes ago)
VFR
Wind Visibility
280° at 4 knots 10 miles
Clouds
  • Clear skies
Temperature Dewpoint
-9°C / 16°F -12°C / 10°F
Humidity Altimeter Pressure
79% 30.16" Hg 1024.3 hPa